Time;durP1;ratioP1;P1;durP2;ratioP2;P2;SDS_P1;SDS_P2;PMS_P1;PMS_P2;Temp;Humidity;BMP_temperature;BMP_pressure;BME280_temperature;BME280_humidity;BME280_pressure;Samples;Min_cycle;Max_cycle;Signal;HPM_P1;HPM_P2
2023/01/12 00:00:00;;;;;;;9.10;1.33;;;7.20;99.90;;;;;;7404655;19;19922;-78
2023/01/12 00:02:28;;;;;;;13.95;2.40;;;6.90;99.90;;;;;;7407412;19;19959;-78
2023/01/12 00:04:57;;;;;;;9.23;1.38;;;7.00;99.90;;;;;;7405775;19;19914;-79
2023/01/12 00:07:27;;;;;;;7.63;2.08;;;7.00;99.90;;;;;;7406750;19;19923;-79
2023/01/12 00:09:56;;;;;;;13.43;1.75;;;7.10;99.90;;;;;;7406599;19;19995;-78
2023/01/12 00:12:25;;;;;;;7.65;1.98;;;7.60;99.90;;;;;;7408542;19;19923;-79
2023/01/12 00:14:54;;;;;;;8.25;1.45;;;7.10;99.90;;;;;;7405233;19;19928;-77
2023/01/12 00:17:26;;;;;;;10.07;1.63;;;7.10;99.90;;;;;;7405171;19;20340;-77
2023/01/12 00:19:55;;;;;;;8.93;1.45;;;7.10;99.90;;;;;;7405142;19;19922;-77
2023/01/12 00:22:23;;;;;;;9.93;2.15;;;7.20;99.90;;;;;;7406248;19;19923;-78
2023/01/12 00:24:53;;;;;;;6.10;1.42;;;8.00;99.90;;;;;;7406838;19;19930;-78
2023/01/12 00:27:23;;;;;;;6.20;1.48;;;8.00;99.90;;;;;;7407560;19;19943;-77
2023/01/12 00:29:53;;;;;;;5.43;1.42;;;7.10;99.90;;;;;;7405097;19;20286;-79
2023/01/12 00:32:22;;;;;;;6.88;1.27;;;7.00;99.90;;;;;;7406244;19;19911;-77
2023/01/12 00:34:54;;;;;;;6.22;1.35;;;7.10;99.90;;;;;;7407256;19;19925;-78
2023/01/12 00:37:23;;;;;;;7.30;1.45;;;7.10;99.90;;;;;;7405321;19;19922;-78
2023/01/12 00:39:52;;;;;;;6.80;1.52;;;7.00;99.90;;;;;;7403041;19;20362;-78
2023/01/12 00:47:46;;;;;;;8.40;1.95;;;7.00;99.90;;;;;;7404930;19;20264;-78
2023/01/12 00:50:18;;;;;;;7.75;1.33;;;6.90;99.90;;;;;;7403576;19;19929;-78
2023/01/12 00:52:50;;;;;;;11.45;1.73;;;6.90;99.90;;;;;;7402985;19;19944;-78
2023/01/12 00:55:18;;;;;;;9.07;2.00;;;7.00;99.90;;;;;;7405085;19;19918;-78
2023/01/12 00:57:47;;;;;;;10.63;1.45;;;6.90;99.90;;;;;;7405415;19;19933;-78
2023/01/12 01:00:18;;;;;;;12.10;1.90;;;6.90;99.90;;;;;;7403391;19;19930;-77
2023/01/12 01:02:47;;;;;;;10.80;1.70;;;7.10;99.90;;;;;;7406610;19;19931;-78
2023/01/12 01:05:19;;;;;;;11.40;2.47;;;7.10;99.90;;;;;;7406413;19;19922;-80
2023/01/12 01:07:48;;;;;;;13.65;1.63;;;7.00;99.90;;;;;;7409148;19;19931;-78
2023/01/12 01:10:18;;;;;;;9.32;2.10;;;6.90;99.90;;;;;;7406775;19;19919;-78
2023/01/12 01:12:47;;;;;;;19.02;1.77;;;7.00;99.90;;;;;;7406339;19;19919;-78
2023/01/12 01:15:16;;;;;;;12.13;1.80;;;7.00;99.90;;;;;;7409984;19;19935;-76
2023/01/12 01:17:44;;;;;;;10.93;1.58;;;7.00;99.90;;;;;;7404232;19;20031;-78
2023/01/12 01:20:14;;;;;;;11.40;2.75;;;6.90;99.90;;;;;;7402688;19;20365;-79
2023/01/12 01:22:45;;;;;;;12.02;1.98;;;6.90;99.90;;;;;;7402759;19;19926;-78
2023/01/12 01:25:14;;;;;;;10.75;2.05;;;7.60;99.90;;;;;;7405155;19;19982;-78
2023/01/12 01:27:43;;;;;;;10.02;1.67;;;6.90;99.90;;;;;;7400550;19;19918;-79
2023/01/12 01:30:13;;;;;;;7.10;1.45;;;6.80;99.90;;;;;;7403289;19;19966;-80
2023/01/12 01:32:42;;;;;;;6.40;1.35;;;6.90;99.90;;;;;;7404190;19;20273;-79
2023/01/12 01:35:11;;;;;;;8.32;1.25;;;7.20;99.90;;;;;;7406818;19;19922;-78
2023/01/12 01:37:40;;;;;;;11.68;1.55;;;6.80;99.90;;;;;;7403477;19;19914;-79
2023/01/12 01:40:13;;;;;;;10.02;1.40;;;6.70;99.90;;;;;;7403460;19;19922;-78
2023/01/12 01:42:42;;;;;;;8.18;1.45;;;6.70;99.90;;;;;;7403565;19;19933;-78
2023/01/12 01:45:15;;;;;;;7.47;1.50;;;6.60;99.90;;;;;;7404635;19;19914;-78
2023/01/12 01:47:47;;;;;;;8.43;1.70;;;6.60;99.90;;;;;;7401305;19;19923;-78
2023/01/12 01:50:19;;;;;;;15.68;2.05;;;6.60;99.90;;;;;;7401759;19;19922;-78
2023/01/12 01:52:50;;;;;;;;;;;6.60;99.90;;;;;;7405846;19;19931;-78
2023/01/12 01:55:24;;;;;;;11.63;1.90;;;6.80;99.90;;;;;;7405626;19;19925;-78
2023/01/12 01:57:57;;;;;;;8.45;1.98;;;6.80;99.90;;;;;;7405613;19;19990;-78
2023/01/12 02:00:27;;;;;;;8.68;1.60;;;6.90;99.90;;;;;;7401358;19;19927;-78
2023/01/12 02:02:57;;;;;;;10.38;1.90;;;6.80;99.90;;;;;;7400837;19;19918;-78
2023/01/12 02:05:29;;;;;;;11.13;1.65;;;6.80;99.90;;;;;;7402370;19;20026;-79
2023/01/12 02:08:05;;;;;;;9.80;1.83;;;7.40;99.90;;;;;;7401606;19;19923;-79
2023/01/12 02:10:38;;;;;;;10.07;1.83;;;6.90;99.90;;;;;;7403942;19;20521;-78
2023/01/12 02:19:22;;;;;;;12.48;2.35;;;7.10;99.90;;;;;;7406730;19;19919;-78
2023/01/12 02:22:28;;;;;;;7.63;1.45;;;6.80;99.90;;;;;;7407555;19;19919;-78
2023/01/12 02:25:21;;;;;;;7.28;1.40;;;6.90;99.90;;;;;;7408072;19;20380;-78
2023/01/12 02:28:15;;;;;;;3.60;1.10;;;6.80;99.90;;;;;;7402092;19;19915;-78
2023/01/12 02:31:09;;;;;;;9.13;1.35;;;6.80;99.90;;;;;;7403250;19;20344;-78
2023/01/12 02:33:54;;;;;;;8.73;1.98;;;6.80;99.90;;;;;;7402193;19;19970;-78
2023/01/12 02:36:37;;;;;;;11.23;2.55;;;6.70;99.90;;;;;;7401424;19;19914;-78
2023/01/12 02:39:12;;;;;;;10.75;1.92;;;6.80;99.90;;;;;;7408292;19;19918;-79
2023/01/12 02:44:34;;;;;;;13.02;2.10;;;6.70;99.90;;;;;;7407993;19;19953;-78
2023/01/12 02:47:08;;;;;;;11.27;1.63;;;6.80;99.90;;;;;;7406645;19;19925;-79
2023/01/12 02:49:44;;;;;;;10.10;1.77;;;6.80;99.90;;;;;;7405914;19;19918;-78
2023/01/12 02:52:17;;;;;;;12.20;2.05;;;6.90;99.90;;;;;;7412192;19;19919;-79
2023/01/12 02:54:50;;;;;;;9.25;1.83;;;6.90;99.90;;;;;;7411409;19;19922;-78
2023/01/12 02:57:21;;;;;;;7.78;2.67;;;7.10;99.90;;;;;;7409531;19;19918;-79
2023/01/12 02:59:51;;;;;;;9.90;1.90;;;7.10;99.90;;;;;;7407885;19;19915;-78
2023/01/12 03:02:23;;;;;;;13.43;2.08;;;6.90;99.90;;;;;;7409617;19;19914;-79
2023/01/12 03:04:55;;;;;;;6.35;1.48;;;6.90;99.90;;;;;;7408331;19;19977;-78
2023/01/12 03:07:40;;;;;;;8.13;1.65;;;6.90;99.90;;;;;;7405852;19;20325;-78
2023/01/12 03:10:22;;;;;;;8.32;1.95;;;6.80;99.90;;;;;;7405670;19;19911;-79
2023/01/12 03:12:53;;;;;;;15.45;2.00;;;6.90;99.90;;;;;;7407341;19;19922;-78
2023/01/12 03:15:27;;;;;;;9.60;1.98;;;6.80;99.90;;;;;;7407360;19;19918;-79
2023/01/12 03:18:00;;;;;;;8.32;1.38;;;6.80;99.90;;;;;;7408082;19;20587;-79
2023/01/12 03:20:36;;;;;;;13.10;1.60;;;8.00;99.90;;;;;;7406919;19;19915;-79
2023/01/12 03:23:11;;;;;;;7.57;2.10;;;6.80;99.90;;;;;;7407270;19;19922;-79
2023/01/12 03:25:44;;;;;;;12.90;2.13;;;6.80;99.90;;;;;;7406742;19;19922;-79
2023/01/12 03:28:17;;;;;;;6.97;1.77;;;6.70;99.90;;;;;;7405469;19;19922;-78
2023/01/12 03:30:58;;;;;;;8.50;1.88;;;6.80;99.90;;;;;;7407076;19;19925;-78
2023/01/12 03:33:28;;;;;;;7.00;1.60;;;6.90;99.90;;;;;;7407048;19;20299;-78
2023/01/12 03:36:08;;;;;;;7.63;2.30;;;7.10;99.90;;;;;;7406041;19;19961;-78
2023/01/12 03:38:43;;;;;;;11.05;2.22;;;6.80;99.90;;;;;;7409284;19;19923;-78
2023/01/12 03:41:16;;;;;;;5.72;1.63;;;7.50;99.90;;;;;;7406466;19;19921;-79
2023/01/12 03:43:51;;;;;;;7.43;1.58;;;6.70;99.90;;;;;;7410633;19;20253;-78
2023/01/12 03:46:26;;;;;;;9.65;1.98;;;6.80;99.90;;;;;;7409757;19;19922;-79
2023/01/12 03:48:59;;;;;;;7.95;2.20;;;6.80;99.90;;;;;;7406683;19;19931;-79
2023/01/12 03:51:34;;;;;;;8.45;2.03;;;6.80;99.90;;;;;;7413166;19;19930;-78
2023/01/12 03:54:05;;;;;;;12.77;2.30;;;6.90;99.90;;;;;;7407638;19;19971;-79
2023/01/12 03:56:37;;;;;;;7.75;2.28;;;6.90;99.90;;;;;;7411016;19;19923;-78
2023/01/12 03:59:08;;;;;;;7.55;2.55;;;6.80;99.90;;;;;;7410452;19;19925;-78
2023/01/12 04:01:37;;;;;;;8.95;2.17;;;8.70;99.90;;;;;;7405021;19;20272;-78
2023/01/12 04:04:06;;;;;;;8.98;2.25;;;6.70;99.90;;;;;;7409278;19;19926;-78
2023/01/12 04:06:37;;;;;;;11.63;2.17;;;6.70;99.90;;;;;;7408017;19;19929;-78
2023/01/12 04:09:06;;;;;;;8.60;2.00;;;6.80;99.90;;;;;;7408771;19;19926;-79
2023/01/12 04:14:17;;;;;;;14.10;2.83;;;7.40;99.90;;;;;;7405515;19;19914;-78
2023/01/12 04:16:45;;;;;;;7.85;1.65;;;6.90;99.90;;;;;;7407418;19;19922;-78
2023/01/12 04:19:14;;;;;;;8.05;2.15;;;6.80;99.90;;;;;;7406331;19;19926;-78
2023/01/12 04:24:27;;;;;;;9.05;1.70;;;8.90;99.90;;;;;;7409669;19;19919;-78
2023/01/12 04:26:56;;;;;;;6.10;2.00;;;6.80;99.90;;;;;;7405570;19;20344;-79
2023/01/12 04:29:25;;;;;;;9.55;1.92;;;6.80;99.90;;;;;;7407461;19;19986;-78
2023/01/12 04:31:54;;;;;;;4.88;1.92;;;6.90;99.90;;;;;;7405386;19;19934;-79
2023/01/12 04:34:23;;;;;;;4.47;1.52;;;6.90;99.90;;;;;;7405992;19;20276;-78
2023/01/12 04:36:55;;;;;;;3.22;1.58;;;6.90;99.90;;;;;;7408459;19;19922;-79
2023/01/12 04:39:23;;;;;;;5.90;1.73;;;7.00;99.90;;;;;;7405113;19;19915;-79
2023/01/12 04:41:53;;;;;;;4.18;1.70;;;7.00;99.90;;;;;;7404172;19;20387;-79
2023/01/12 04:44:22;;;;;;;6.65;1.75;;;6.90;99.90;;;;;;7405055;19;20343;-77
2023/01/12 04:46:52;;;;;;;7.20;1.90;;;6.90;99.90;;;;;;7406734;19;19933;-78
2023/01/12 04:49:20;;;;;;;4.43;1.83;;;6.90;99.90;;;;;;7404527;19;20264;-78
2023/01/12 04:51:49;;;;;;;5.00;1.38;;;6.80;99.90;;;;;;7407024;19;19940;-78
2023/01/12 04:54:21;;;;;;;6.25;1.85;;;7.60;99.90;;;;;;7404797;19;20344;-78
2023/01/12 04:56:49;;;;;;;4.15;1.55;;;6.90;99.90;;;;;;7406350;19;19931;-77
2023/01/12 04:59:18;;;;;;;5.47;1.70;;;6.90;99.90;;;;;;7404352;19;19914;-78
2023/01/12 05:01:47;;;;;;;3.90;1.58;;;6.90;99.90;;;;;;7402933;19;20325;-78
2023/01/12 05:04:16;;;;;;;1.50;0.98;;;7.20;99.90;;;;;;7405623;19;19922;-78
2023/01/12 05:06:45;;;;;;;5.03;1.52;;;6.90;99.90;;;;;;7405492;19;19919;-78
2023/01/12 05:11:58;;;;;;;2.25;1.00;;;7.00;99.90;;;;;;7403966;19;19918;-78
2023/01/12 05:14:28;;;;;;;4.45;1.20;;;7.10;99.90;;;;;;7406867;19;19921;-78
2023/01/12 05:16:58;;;;;;;4.70;1.38;;;7.10;99.90;;;;;;7405437;19;19918;-78
2023/01/12 05:19:27;;;;;;;1.50;0.98;;;7.00;99.90;;;;;;7406430;19;19929;-78
2023/01/12 05:21:56;;;;;;;3.13;1.08;;;7.40;99.90;;;;;;7403267;19;19910;-79
2023/01/12 05:24:25;;;;;;;3.63;1.08;;;7.00;99.90;;;;;;7405408;19;19918;-79
2023/01/12 05:26:54;;;;;;;1.27;0.75;;;6.90;99.90;;;;;;7407175;19;19925;-79
2023/01/12 05:29:25;;;;;;;2.03;0.80;;;6.90;99.90;;;;;;7408429;19;19918;-79
2023/01/12 05:31:55;;;;;;;2.38;0.88;;;7.10;99.90;;;;;;7407868;19;19974;-79
2023/01/12 05:34:24;;;;;;;3.78;1.05;;;6.90;99.90;;;;;;7411657;19;19922;-80
2023/01/12 05:36:53;;;;;;;3.22;0.93;;;6.90;99.90;;;;;;7408865;19;20276;-79
2023/01/12 05:39:22;;;;;;;1.65;0.70;;;7.80;99.90;;;;;;7406047;19;19918;-79
2023/01/12 05:44:34;;;;;;;1.90;0.90;;;6.90;99.90;;;;;;7406154;19;19939;-79
2023/01/12 05:47:03;;;;;;;2.90;0.80;;;6.90;99.90;;;;;;7405548;19;19922;-79
2023/01/12 05:49:32;;;;;;;2.03;1.05;;;6.90;99.90;;;;;;7403164;19;20288;-80
2023/01/12 05:52:01;;;;;;;2.35;0.60;;;6.90;99.90;;;;;;7403142;19;19915;-78
2023/01/12 05:54:30;;;;;;;3.53;0.45;;;6.90;99.90;;;;;;7403258;19;19935;-78
2023/01/12 05:56:59;;;;;;;1.52;0.93;;;7.00;99.90;;;;;;7403598;19;20344;-79
2023/01/12 05:59:28;;;;;;;1.02;0.55;;;6.90;99.90;;;;;;7403235;19;19914;-79
2023/01/12 06:01:59;;;;;;;2.22;0.85;;;6.80;99.90;;;;;;7402167;19;19914;-80
2023/01/12 06:04:28;;;;;;;4.65;0.77;;;6.70;99.90;;;;;;7405170;19;19919;-80
2023/01/12 06:06:57;;;;;;;2.05;0.60;;;6.80;99.90;;;;;;7403154;19;19914;-80
2023/01/12 06:09:26;;;;;;;11.15;1.60;;;6.80;99.90;;;;;;7400546;19;19925;-79
2023/01/12 06:14:36;;;;;;;3.70;0.60;;;6.70;99.90;;;;;;7402196;19;19918;-79
2023/01/12 06:17:08;;;;;;;2.85;0.80;;;7.00;99.90;;;;;;7404118;19;19915;-80
2023/01/12 06:19:37;;;;;;;1.70;0.47;;;6.70;99.90;;;;;;7402647;19;19922;-80
2023/01/12 06:22:08;;;;;;;1.15;0.60;;;6.70;99.90;;;;;;7402024;19;19919;-81
2023/01/12 06:24:37;;;;;;;4.47;0.75;;;6.70;99.90;;;;;;7404962;19;20285;-81
2023/01/12 06:27:07;;;;;;;2.60;0.52;;;7.30;99.90;;;;;;7402143;19;20335;-82
2023/01/12 06:29:36;;;;;;;1.67;0.73;;;6.70;99.90;;;;;;7405355;19;19985;-79
2023/01/12 06:32:09;;;;;;;3.17;0.70;;;6.80;99.90;;;;;;7404668;19;19935;-80
2023/01/12 06:34:38;;;;;;;2.53;0.75;;;6.90;99.90;;;;;;7405449;19;19910;-80
2023/01/12 06:37:10;;;;;;;1.70;0.60;;;6.90;99.90;;;;;;7408316;19;19919;-80
2023/01/12 06:39:39;;;;;;;2.67;0.60;;;8.90;99.90;;;;;;7407029;19;19931;-80
2023/01/12 06:44:49;;;;;;;1.20;0.52;;;6.80;99.90;;;;;;7404421;19;19954;-81
2023/01/12 06:47:21;;;;;;;1.88;0.40;;;7.00;99.90;;;;;;7404794;19;20297;-80
2023/01/12 06:49:50;;;;;;;2.35;0.40;;;6.90;99.90;;;;;;7401706;19;19923;-80
2023/01/12 06:52:21;;;;;;;4.60;0.40;;;6.90;99.90;;;;;;7401018;19;19923;-80
2023/01/12 06:54:50;;;;;;;3.35;0.50;;;6.90;99.90;;;;;;7400636;19;19926;-80
2023/01/12 06:57:19;;;;;;;4.07;0.40;;;7.00;99.90;;;;;;7401541;19;19922;-80
2023/01/12 06:59:48;;;;;;;1.25;0.30;;;6.90;99.90;;;;;;7401013;19;20352;-78
2023/01/12 07:02:20;;;;;;;2.47;0.30;;;7.00;99.90;;;;;;7403630;19;19925;-79
2023/01/12 07:04:49;;;;;;;4.43;0.55;;;8.00;99.90;;;;;;7406381;19;19911;-78
2023/01/12 07:07:18;;;;;;;2.55;0.60;;;7.00;99.90;;;;;;7404095;19;20295;-78
2023/01/12 07:09:47;;;;;;;1.50;0.30;;;7.00;99.90;;;;;;7400960;19;19911;-80
2023/01/12 07:12:16;;;;;;;0.63;0.40;;;7.20;99.90;;;;;;7400531;19;19933;-79
2023/01/12 07:14:45;;;;;;;0.98;0.20;;;7.10;99.90;;;;;;7402785;19;19925;-76
2023/01/12 07:17:14;;;;;;;1.67;0.40;;;7.10;99.90;;;;;;7403204;19;19978;-76
2023/01/12 07:19:45;;;;;;;0.88;0.30;;;7.10;99.90;;;;;;7400633;19;19915;-76
2023/01/12 07:22:14;;;;;;;1.13;0.35;;;7.20;99.90;;;;;;7400170;19;20221;-78
2023/01/12 07:24:43;;;;;;;1.25;0.30;;;7.40;99.90;;;;;;7404445;19;19982;-79
2023/01/12 07:27:12;;;;;;;5.32;0.50;;;7.30;99.90;;;;;;7408378;19;19970;-79
2023/01/12 07:29:41;;;;;;;2.50;0.40;;;7.50;99.90;;;;;;7403878;19;19925;-79
2023/01/12 07:32:11;;;;;;;1.38;0.20;;;7.40;99.90;;;;;;7408773;19;19988;-80
2023/01/12 07:34:40;;;;;;;1.42;0.50;;;8.60;99.90;;;;;;7409673;19;20016;-80
2023/01/12 07:37:12;;;;;;;0.82;0.50;;;7.40;99.90;;;;;;7408410;19;19974;-80
2023/01/12 07:39:41;;;;;;;0.50;0.30;;;7.50;99.90;;;;;;7409794;19;19925;-80
2023/01/12 07:42:25;;;;;;;0.70;0.40;;;7.50;99.90;;;;;;7408966;19;19922;-79
2023/01/12 07:44:54;;;;;;;0.20;0.20;;;7.50;99.90;;;;;;7406215;19;19929;-80
2023/01/12 07:47:24;;;;;;;0.40;0.25;;;7.60;99.90;;;;;;7406594;19;19915;-79
2023/01/12 07:49:52;;;;;;;0.50;0.25;;;7.60;99.90;;;;;;7404790;19;19918;-79
2023/01/12 07:52:24;;;;;;;0.55;0.43;;;7.60;99.90;;;;;;7406608;19;19925;-80
2023/01/12 07:54:53;;;;;;;1.02;0.50;;;7.60;99.90;;;;;;7405628;19;19924;-79
2023/01/12 07:57:22;;;;;;;0.30;0.30;;;7.60;99.90;;;;;;7406567;19;19971;-79
2023/01/12 07:59:51;;;;;;;1.73;0.40;;;7.70;99.90;;;;;;7406237;19;20019;-79
2023/01/12 08:02:20;;;;;;;0.70;0.40;;;7.70;99.90;;;;;;7407918;19;19919;-79
2023/01/12 08:04:49;;;;;;;0.82;0.22;;;7.70;99.90;;;;;;7405882;19;19921;-79
2023/01/12 08:07:17;;;;;;;3.13;0.30;;;8.40;99.90;;;;;;7405320;19;19921;-79
2023/01/12 08:09:49;;;;;;;1.05;0.30;;;7.80;99.90;;;;;;7402930;19;20312;-79
2023/01/12 08:12:20;;;;;;;0.90;0.30;;;7.70;99.90;;;;;;7405919;19;19915;-79
2023/01/12 08:14:49;;;;;;;0.47;0.30;;;7.80;99.90;;;;;;7405445;19;19917;-79
2023/01/12 08:17:22;;;;;;;3.22;0.60;;;7.90;99.90;;;;;;7405593;19;20267;-79
2023/01/12 08:19:55;;;;;;;0.32;0.30;;;7.80;99.90;;;;;;7405585;19;19924;-79
2023/01/12 08:22:28;;;;;;;1.88;0.40;;;7.80;99.90;;;;;;7405622;19;19921;-79
2023/01/12 08:25:05;;;;;;;2.10;0.40;;;7.80;99.90;;;;;;7406367;19;19994;-80
2023/01/12 08:27:37;;;;;;;0.93;0.70;;;7.80;99.90;;;;;;7405915;19;19914;-79
2023/01/12 08:30:08;;;;;;;0.88;0.40;;;7.90;99.90;;;;;;7404078;19;19932;-79
2023/01/12 08:32:38;;;;;;;1.30;0.50;;;8.10;99.90;;;;;;7405928;19;20352;-81
2023/01/12 08:35:09;;;;;;;2.05;0.30;;;7.90;99.90;;;;;;7408018;19;20281;-79
2023/01/12 08:37:38;;;;;;;2.63;0.70;;;7.90;99.90;;;;;;7417035;19;19922;-80
2023/01/12 08:40:13;;;;;;;2.75;0.60;;;8.00;99.90;;;;;;7415392;19;19943;-80
2023/01/12 08:42:42;;;;;;;2.15;0.50;;;8.00;99.90;;;;;;7410969;19;19915;-80
2023/01/12 08:45:12;;;;;;;4.35;0.90;;;8.10;99.90;;;;;;7411819;19;19925;-79
2023/01/12 08:47:43;;;;;;;2.38;0.80;;;8.00;99.90;;;;;;7406691;19;19942;-79
2023/01/12 08:50:13;;;;;;;5.88;1.20;;;8.20;99.90;;;;;;7405011;19;20874;-79
2023/01/12 08:52:42;;;;;;;6.88;1.15;;;8.10;99.90;;;;;;7405088;19;19915;-80
2023/01/12 08:55:13;;;;;;;6.75;1.30;;;8.10;99.90;;;;;;7406638;19;20271;-80
2023/01/12 08:57:44;;;;;;;5.65;0.85;;;8.30;99.90;;;;;;7405121;19;19919;-79
2023/01/12 09:00:14;;;;;;;6.45;1.38;;;8.30;99.90;;;;;;7404717;19;19922;-80
2023/01/12 09:02:43;;;;;;;6.75;1.40;;;8.40;99.90;;;;;;7404684;19;20341;-80
2023/01/12 09:05:11;;;;;;;3.92;0.93;;;8.40;99.90;;;;;;7404181;19;19918;-79
2023/01/12 09:07:41;;;;;;;13.60;2.10;;;8.60;99.90;;;;;;7404362;19;19935;-80
2023/01/12 09:10:13;;;;;;;17.52;2.60;;;8.60;99.90;;;;;;7404806;19;19929;-80
2023/01/12 09:12:42;;;;;;;8.00;1.80;;;8.80;99.90;;;;;;7404499;19;19913;-80
2023/01/12 09:15:12;;;;;;;10.60;1.85;;;8.80;99.90;;;;;;7404728;19;19910;-80
2023/01/12 09:17:42;;;;;;;8.93;1.80;;;9.00;99.90;;;;;;7405277;19;19918;-79
2023/01/12 09:20:12;;;;;;;12.30;2.55;;;8.90;99.90;;;;;;7407371;19;19918;-80
2023/01/12 09:22:41;;;;;;;9.05;1.50;;;9.00;99.90;;;;;;7405638;19;20400;-80
2023/01/12 09:25:13;;;;;;;8.90;2.45;;;9.20;99.90;;;;;;7404962;19;19923;-80
2023/01/12 09:27:42;;;;;;;7.22;1.48;;;9.10;99.90;;;;;;7406274;19;20259;-80
2023/01/12 09:30:13;;;;;;;13.02;1.85;;;9.00;99.90;;;;;;7402559;19;19919;-80
2023/01/12 09:32:42;;;;;;;10.38;1.67;;;9.20;99.90;;;;;;7403795;19;20272;-80
2023/01/12 09:35:11;;;;;;;10.60;1.60;;;9.10;99.90;;;;;;7406936;19;19919;-78
2023/01/12 09:37:42;;;;;;;10.48;1.48;;;9.10;99.90;;;;;;7403713;19;19975;-81
2023/01/12 09:40:16;;;;;;;11.00;1.45;;;9.10;99.90;;;;;;7403219;19;19941;-80
2023/01/12 09:48:17;;;;;;;13.48;1.98;;;9.30;99.90;;;;;;7404850;19;19934;-80
2023/01/12 09:50:51;;;;;;;12.95;1.85;;;9.30;99.90;;;;;;7405427;19;19919;-80
2023/01/12 09:53:24;;;;;;;11.75;1.75;;;9.20;99.90;;;;;;7403324;19;20357;-80
2023/01/12 09:56:03;;;;;;;7.18;1.08;;;9.30;99.90;;;;;;7402048;19;19918;-80
2023/01/12 09:58:49;;;;;;;8.00;1.30;;;9.30;99.90;;;;;;7403295;19;19923;-80
2023/01/12 10:01:19;;;;;;;10.15;1.60;;;9.40;99.90;;;;;;7402281;19;19925;-80
2023/01/12 10:03:48;;;;;;;8.88;1.25;;;9.40;99.90;;;;;;7402198;19;19911;-80
2023/01/12 10:06:19;;;;;;;6.45;1.60;;;9.40;99.90;;;;;;7405324;19;20013;-80
2023/01/12 10:08:50;;;;;;;9.95;1.70;;;9.60;99.90;;;;;;7401917;19;19911;-80
2023/01/12 10:11:26;;;;;;;12.85;1.40;;;9.50;99.90;;;;;;7402594;19;19930;-81
2023/01/12 10:14:24;;;;;;;8.05;1.50;;;9.60;99.90;;;;;;7403190;19;19930;-80
2023/01/12 10:17:09;;;;;;;13.18;1.75;;;9.60;99.90;;;;;;7401253;19;19970;-79
2023/01/12 10:19:46;;;;;;;8.57;1.55;;;9.60;99.90;;;;;;7406454;19;19986;-80
2023/01/12 10:22:35;;;;;;;10.25;1.67;;;9.70;99.90;;;;;;7406793;19;20229;-80
2023/01/12 10:25:14;;;;;;;8.80;1.52;;;9.80;99.90;;;;;;7403762;19;19914;-79
2023/01/12 10:27:48;;;;;;;6.18;1.30;;;9.70;99.90;;;;;;7401074;19;20263;-79
2023/01/12 10:30:20;;;;;;;7.78;1.20;;;9.60;99.90;;;;;;7401829;19;20524;-80
2023/01/12 10:32:50;;;;;;;11.15;1.65;;;9.60;99.90;;;;;;7401907;19;19943;-80
2023/01/12 10:35:20;;;;;;;5.95;1.33;;;9.70;99.90;;;;;;7404414;19;19918;-80
2023/01/12 10:37:52;;;;;;;9.77;1.48;;;9.60;99.90;;;;;;7403078;19;19918;-80
2023/01/12 10:40:28;;;;;;;12.48;1.98;;;9.70;99.90;;;;;;7402146;19;19970;-80
2023/01/12 10:43:22;;;;;;;4.80;1.48;;;9.70;99.90;;;;;;7401285;19;19910;-80
2023/01/12 10:46:07;;;;;;;12.43;1.63;;;9.80;99.90;;;;;;7401001;19;19927;-80
2023/01/12 10:48:37;;;;;;;4.63;1.20;;;9.90;99.90;;;;;;7399621;19;19918;-81
2023/01/12 10:51:09;;;;;;;11.95;1.83;;;9.80;99.90;;;;;;7399889;19;19953;-80
2023/01/12 10:53:44;;;;;;;13.95;2.88;;;9.90;99.90;;;;;;7400825;19;19942;-80
2023/01/12 10:56:15;;;;;;;4.13;1.08;;;9.90;99.90;;;;;;7402066;19;20362;-80
2023/01/12 10:58:55;;;;;;;6.22;1.15;;;10.00;99.90;;;;;;7402566;19;19933;-80
2023/01/12 11:01:24;;;;;;;10.10;1.08;;;9.90;99.90;;;;;;7407027;19;19914;-80
2023/01/12 11:04:05;;;;;;;7.10;0.93;;;9.90;99.90;;;;;;7407637;19;19982;-82
2023/01/12 11:06:33;;;;;;;15.60;1.33;;;9.90;99.90;;;;;;7396409;19;19944;-78
2023/01/12 11:09:19;;;;;;;7.35;1.35;;;9.90;99.90;;;;;;7399975;19;20252;-77
2023/01/12 11:11:48;;;;;;;10.75;1.38;;;9.90;99.90;;;;;;7409849;19;19922;-88
2023/01/12 11:14:28;;;;;;;8.32;1.52;;;9.80;99.90;;;;;;7409892;19;20528;-80
2023/01/12 11:17:16;;;;;;;7.32;1.17;;;9.80;99.90;;;;;;7408633;19;20347;-81
2023/01/12 11:19:47;;;;;;;7.57;1.13;;;9.80;99.90;;;;;;7409813;19;19953;-81
2023/01/12 11:22:22;;;;;;;9.75;1.75;;;9.60;99.90;;;;;;7408610;19;20418;-77
2023/01/12 11:24:56;;;;;;;4.43;0.88;;;9.80;99.90;;;;;;7406105;19;20294;-75
2023/01/12 11:27:31;;;;;;;7.15;1.02;;;9.70;99.90;;;;;;7407955;19;20390;-75
2023/01/12 11:30:11;;;;;;;5.80;1.08;;;9.80;99.90;;;;;;7403121;19;19994;-76
2023/01/12 11:32:43;;;;;;;10.00;1.73;;;9.80;99.90;;;;;;7407007;19;19950;-75
2023/01/12 11:35:29;;;;;;;5.75;1.20;;;10.00;99.90;;;;;;7406080;19;19929;-76
2023/01/12 11:38:05;;;;;;;4.45;0.93;;;10.00;99.90;;;;;;7407033;19;19995;-76
2023/01/12 11:40:36;;;;;;;9.00;1.20;;;10.00;99.90;;;;;;7409156;19;19926;-76
2023/01/12 11:46:02;;;;;;;9.68;1.30;;;10.20;99.90;;;;;;7410365;19;19932;-79
2023/01/12 11:48:44;;;;;;;7.60;1.08;;;10.20;99.90;;;;;;7406336;19;19957;-76
2023/01/12 11:51:14;;;;;;;5.40;1.30;;;10.20;99.90;;;;;;7405878;19;19979;-75
2023/01/12 11:53:44;;;;;;;7.10;1.63;;;10.20;99.90;;;;;;7407279;19;20280;-77
2023/01/12 11:56:44;;;;;;;8.55;1.65;;;10.20;99.90;;;;;;7406824;19;19919;-76
2023/01/12 11:59:19;;;;;;;4.78;1.02;;;10.30;99.90;;;;;;7405047;19;19918;-76
2023/01/12 12:02:02;;;;;;;10.88;1.23;;;10.20;99.90;;;;;;7405639;19;19941;-75
2023/01/12 12:04:50;;;;;;;6.65;1.00;;;10.40;99.90;;;;;;7407595;19;19926;-75
2023/01/12 12:07:33;;;;;;;16.58;2.20;;;10.40;99.90;;;;;;7405639;19;20320;-76
2023/01/12 12:10:22;;;;;;;6.63;1.20;;;10.40;99.90;;;;;;7405358;19;20568;-75
2023/01/12 12:13:16;;;;;;;9.45;1.33;;;10.50;99.90;;;;;;7405868;19;20322;-75
2023/01/12 12:15:54;;;;;;;8.02;1.33;;;10.50;99.90;;;;;;7405434;19;19918;-76
2023/01/12 12:18:37;;;;;;;8.52;1.42;;;10.50;99.90;;;;;;7407306;19;19978;-79
2023/01/12 12:21:16;;;;;;;3.47;0.98;;;10.50;99.90;;;;;;7405203;19;19923;-78
2023/01/12 12:23:58;;;;;;;5.80;1.45;;;10.50;99.90;;;;;;7406263;19;19918;-76
2023/01/12 12:26:32;;;;;;;8.52;1.55;;;10.50;99.90;;;;;;7402652;19;19926;-79
2023/01/12 12:29:25;;;;;;;6.97;0.95;;;10.60;99.90;;;;;;7403961;19;19923;-80
2023/01/12 12:32:03;;;;;;;7.40;1.10;;;10.70;99.90;;;;;;7405041;19;19929;-79
2023/01/12 12:35:05;;;;;;;6.85;0.95;;;10.50;99.90;;;;;;7407040;19;19921;-79
2023/01/12 12:37:48;;;;;;;7.90;1.55;;;10.60;99.90;;;;;;7405125;19;19928;-78
2023/01/12 12:45:15;;;;;;;7.43;1.00;;;10.50;99.90;;;;;;7405878;19;19933;-79
2023/01/12 12:46:18;;;;;;;7.72;1.48;;;10.50;99.90;;;;;;7407910;19;20349;-79
2023/01/12 12:48:59;;;;;;;9.57;2.45;;;10.50;99.90;;;;;;7404422;19;20428;-79
2023/01/12 12:51:33;;;;;;;9.55;1.30;;;10.40;99.90;;;;;;7405918;19;19926;-79
2023/01/12 12:54:05;;;;;;;8.90;1.65;;;10.50;99.90;;;;;;7405377;19;19929;-78
2023/01/12 12:56:37;;;;;;;7.32;1.08;;;10.40;99.90;;;;;;7404107;19;19915;-77
2023/01/12 12:59:06;;;;;;;4.32;0.82;;;10.40;99.90;;;;;;7406997;19;20007;-78
2023/01/12 13:01:42;;;;;;;5.35;1.10;;;10.30;99.90;;;;;;7404512;19;19943;-79
2023/01/12 13:04:13;;;;;;;4.55;0.95;;;10.40;99.90;;;;;;7405542;19;19922;-79
2023/01/12 13:06:51;;;;;;;12.20;3.55;;;10.40;99.90;;;;;;7407100;19;20354;-79
2023/01/12 13:09:42;;;;;;;11.43;1.48;;;10.30;99.90;;;;;;7407335;19;19922;-80
2023/01/12 13:12:31;;;;;;;8.73;2.60;;;10.30;99.90;;;;;;7407277;19;20297;-79
2023/01/12 13:15:16;;;;;;;;;;;10.20;99.90;;;;;;7407289;19;19919;-79
2023/01/12 13:17:47;;;;;;;5.97;1.25;;;10.30;99.90;;;;;;7402537;19;19925;-78
2023/01/12 13:20:49;;;;;;;5.75;1.17;;;10.20;99.90;;;;;;7400282;19;20264;-78
2023/01/12 13:23:50;;;;;;;13.30;1.83;;;10.30;99.90;;;;;;7399308;19;20370;-79
2023/01/12 13:26:40;;;;;;;8.77;1.13;;;10.10;99.90;;;;;;7405089;19;19958;-79
2023/01/12 13:29:50;;;;;;;4.55;1.00;;;10.20;99.90;;;;;;7408048;19;19925;-79
2023/01/12 13:32:52;;;;;;;11.43;1.48;;;10.10;99.90;;;;;;7399201;19;19919;-79
2023/01/12 13:35:55;;;;;;;5.35;1.20;;;10.10;99.90;;;;;;7403740;19;19919;-79
2023/01/12 13:38:54;;;;;;;7.35;0.98;;;10.10;99.90;;;;;;7401307;19;19918;-79
2023/01/12 13:44:15;;;;;;;5.32;1.02;;;10.30;99.90;;;;;;7404726;19;20266;-79
2023/01/12 13:46:48;;;;;;;10.95;1.25;;;10.10;99.90;;;;;;7402926;19;19929;-78
2023/01/12 13:49:29;;;;;;;8.27;1.33;;;10.00;99.90;;;;;;7404428;19;19953;-79
2023/01/12 13:52:01;;;;;;;8.60;1.85;;;9.90;99.90;;;;;;7403609;19;20341;-78
2023/01/12 13:54:32;;;;;;;;;;;10.00;99.90;;;;;;7405946;19;19938;-78
2023/01/12 13:57:03;;;;;;;12.45;1.20;;;10.00;99.90;;;;;;7400792;19;19978;-78
2023/01/12 13:59:33;;;;;;;9.55;1.65;;;9.90;99.90;;;;;;7402371;19;19931;-78
2023/01/12 14:02:04;;;;;;;7.97;1.42;;;10.00;99.90;;;;;;7402233;19;20408;-78
2023/01/12 14:04:57;;;;;;;8.70;1.88;;;10.10;99.90;;;;;;7404218;19;19922;-78
2023/01/12 14:07:41;;;;;;;12.32;2.35;;;10.00;99.90;;;;;;7403917;19;19934;-79
2023/01/12 14:10:23;;;;;;;5.63;1.45;;;9.90;99.90;;;;;;7402037;19;19924;-79